Weather at Korroticës së Ulët Airport [CLOSED]

Public forecast

Using degrees Celsius for public forecast. Weather courtesy of forecast.io.

Closest aviation weather report (METAR) to Korroticës së Ulët Airport

Closest report is Priština Adem Jashari International Airport, 5.9 nm (10.9 km) ESE.

2024/02/23 06:00 (retrieved 30 minutes ago)

BKPR 230600Z 17006KT 9999 BKN050 06/01 Q1013 NOSIG

Closest aviation forecast (TAF) to Korroticës së Ulët Airport

Closest forecast is Priština Adem Jashari International Airport, 5.9 nm (10.9 km) ESE.

2024/02/23 06:00 (retrieved 30 minutes ago)

TAF BKPR 230530Z 2306/2406 17012KT 9999 SCT050 TEMPO 2309/2320 23020G30